createdAt,value
2022-08-03T00:01:50.881Z,21.00
2022-08-03T00:04:18.144Z,21.00
2022-08-03T00:06:45.162Z,20.90
2022-08-03T00:09:12.198Z,20.80
2022-08-03T00:11:39.511Z,20.90
2022-08-03T00:14:07.542Z,20.90
2022-08-03T00:16:35.180Z,20.80
2022-08-03T00:19:03.365Z,20.80
2022-08-03T00:21:30.569Z,20.80
2022-08-03T00:23:57.636Z,20.70
2022-08-03T00:26:24.665Z,20.60
2022-08-03T00:28:51.673Z,20.50
2022-08-03T00:31:32.221Z,20.50
2022-08-03T00:34:06.018Z,20.40
2022-08-03T00:36:33.957Z,20.10
2022-08-03T00:39:00.962Z,20.30
2022-08-03T00:41:28.238Z,20.20
2022-08-03T00:43:55.260Z,20.30
2022-08-03T00:46:22.613Z,20.20
2022-08-03T00:48:51.021Z,20.10
2022-08-03T00:51:20.055Z,20.10
2022-08-03T00:53:47.309Z,20.10
2022-08-03T00:56:16.096Z,19.80
2022-08-03T00:58:45.523Z,20.00
2022-08-03T01:01:13.116Z,19.90
2022-08-03T01:03:40.752Z,19.90
2022-08-03T01:06:30.743Z,19.50
2022-08-03T01:09:30.397Z,19.80
2022-08-03T01:12:48.801Z,19.80
2022-08-03T01:16:04.329Z,19.90
2022-08-03T01:18:50.959Z,19.70
2022-08-03T01:21:48.393Z,19.70
2022-08-03T01:24:50.132Z,19.70
2022-08-03T01:27:26.140Z,19.70
2022-08-03T01:30:04.519Z,19.70
2022-08-03T01:32:58.120Z,19.70
2022-08-03T01:35:39.353Z,19.70
2022-08-03T01:38:38.161Z,19.70
2022-08-03T01:41:17.391Z,19.70
2022-08-03T01:44:27.592Z,19.60
2022-08-03T01:46:38.616Z,19.70
2022-08-03T01:49:11.183Z,19.60
2022-08-03T01:51:58.567Z,19.50
2022-08-03T01:54:38.174Z,19.60
2022-08-03T01:57:05.991Z,19.50
2022-08-03T01:59:36.539Z,19.40
2022-08-03T02:02:31.886Z,19.30
2022-08-03T02:04:57.151Z,19.20
2022-08-03T02:07:26.766Z,19.30
2022-08-03T02:09:55.921Z,19.10
2022-08-03T02:12:27.931Z,18.90
2022-08-03T02:14:57.096Z,19.10
2022-08-03T02:17:39.797Z,19.20
2022-08-03T02:20:13.384Z,19.20
2022-08-03T02:22:42.650Z,19.20
2022-08-03T02:25:15.650Z,19.20
2022-08-03T02:27:56.398Z,19.20
2022-08-03T02:30:33.389Z,19.20
2022-08-03T02:33:02.068Z,19.20
2022-08-03T02:35:30.716Z,19.10
2022-08-03T02:38:03.117Z,19.20
2022-08-03T02:40:32.452Z,19.20
2022-08-03T02:43:05.251Z,19.20
2022-08-03T02:45:36.030Z,19.30
2022-08-03T02:48:05.987Z,19.30
2022-08-03T02:50:35.121Z,19.30
2022-08-03T02:53:03.850Z,19.30
2022-08-03T02:55:34.904Z,19.20
2022-08-03T02:58:04.448Z,19.20
2022-08-03T03:00:35.250Z,19.20
2022-08-03T03:03:04.438Z,19.20
2022-08-03T03:05:55.306Z,19.10
2022-08-03T03:08:25.929Z,19.10
2022-08-03T03:11:00.560Z,19.10
2022-08-03T03:13:30.275Z,19.10
2022-08-03T03:16:02.594Z,19.00
2022-08-03T03:18:33.208Z,19.00
2022-08-03T03:21:03.747Z,19.10
2022-08-03T03:23:34.203Z,19.00
2022-08-03T03:26:02.351Z,19.10
2022-08-03T03:28:30.640Z,19.00
2022-08-03T03:30:58.711Z,19.00
2022-08-03T03:33:28.367Z,18.90
2022-08-03T03:35:57.657Z,18.90
2022-08-03T03:38:24.719Z,19.00
2022-08-03T03:40:52.042Z,18.90
2022-08-03T03:43:19.504Z,18.90
2022-08-03T03:45:49.182Z,18.80
2022-08-03T03:48:16.361Z,18.90
2022-08-03T03:50:44.584Z,18.90
2022-08-03T03:53:13.803Z,18.90
2022-08-03T03:55:59.388Z,18.80
2022-08-03T03:58:29.124Z,18.70
2022-08-03T04:00:56.246Z,18.70
2022-08-03T04:03:23.521Z,18.70
2022-08-03T04:06:09.117Z,18.60
2022-08-03T04:08:54.875Z,18.60
2022-08-03T04:11:34.627Z,18.60
2022-08-03T04:14:12.264Z,18.50
2022-08-03T04:16:46.358Z,18.50
2022-08-03T04:19:32.334Z,18.60
2022-08-03T04:22:05.851Z,18.50
2022-08-03T04:24:51.947Z,18.50
2022-08-03T04:27:28.547Z,18.50
2022-08-03T04:29:57.581Z,18.50
2022-08-03T04:32:28.740Z,18.50
2022-08-03T04:34:56.011Z,18.50
2022-08-03T04:37:34.783Z,18.60
2022-08-03T04:40:05.944Z,18.60
2022-08-03T04:42:34.438Z,18.70
2022-08-03T04:45:04.206Z,18.80
2022-08-03T04:47:34.726Z,18.80
2022-08-03T04:50:03.772Z,18.80
2022-08-03T04:52:31.565Z,18.80
2022-08-03T04:54:58.534Z,18.90
2022-08-03T04:57:25.626Z,18.90
2022-08-03T05:00:02.759Z,19.00
2022-08-03T05:02:31.995Z,18.90
2022-08-03T05:04:59.629Z,19.00
2022-08-03T05:07:36.414Z,19.00
2022-08-03T05:10:14.965Z,19.00
2022-08-03T05:12:46.458Z,19.10
2022-08-03T05:15:13.986Z,19.20
2022-08-03T05:17:41.140Z,19.40
2022-08-03T05:20:09.226Z,19.40
2022-08-03T05:22:36.343Z,19.50
2022-08-03T05:25:04.411Z,19.40
2022-08-03T05:27:31.454Z,19.60
2022-08-03T05:30:31.049Z,19.80
2022-08-03T05:32:46.005Z,19.80
2022-08-03T05:35:57.475Z,20.00
2022-08-03T05:38:00.025Z,20.10
2022-08-03T05:40:27.238Z,20.20
2022-08-03T05:42:54.318Z,20.40
2022-08-03T05:45:24.301Z,20.40
2022-08-03T05:47:54.933Z,20.50
2022-08-03T05:50:22.352Z,20.60
2022-08-03T05:52:49.437Z,20.70
2022-08-03T05:55:17.760Z,20.90
2022-08-03T05:57:47.251Z,21.00
2022-08-03T06:00:17.167Z,21.00
2022-08-03T06:02:44.222Z,21.00
2022-08-03T06:05:11.460Z,21.10
2022-08-03T06:07:38.629Z,21.20
2022-08-03T06:10:35.971Z,21.30
2022-08-03T06:12:53.988Z,21.40
2022-08-03T06:15:21.145Z,21.60
2022-08-03T06:17:50.684Z,21.70
2022-08-03T06:20:20.004Z,21.70
2022-08-03T06:22:50.769Z,21.80
2022-08-03T06:25:21.230Z,21.80
2022-08-03T06:27:48.443Z,21.90
2022-08-03T06:30:21.081Z,21.90
2022-08-03T06:32:52.108Z,21.90
2022-08-03T06:35:20.090Z,22.10
2022-08-03T06:37:50.691Z,22.30
2022-08-03T06:40:29.034Z,22.30
2022-08-03T06:42:57.841Z,22.40
2022-08-03T06:45:25.214Z,22.40
2022-08-03T06:48:12.954Z,22.60
2022-08-03T06:50:42.043Z,22.60
2022-08-03T06:53:18.194Z,22.70
2022-08-03T06:55:53.938Z,22.70
2022-08-03T06:58:21.668Z,22.80
2022-08-03T07:00:48.749Z,23.00
2022-08-03T07:03:16.166Z,23.20
2022-08-03T07:05:46.536Z,23.30
2022-08-03T07:08:14.420Z,23.20
2022-08-03T07:10:41.517Z,23.40
2022-08-03T07:13:08.922Z,23.50
2022-08-03T07:15:55.815Z,23.60
2022-08-03T07:18:23.506Z,23.50
2022-08-03T07:20:58.168Z,23.50
2022-08-03T07:23:26.478Z,23.60
2022-08-03T07:25:53.606Z,23.60
2022-08-03T07:28:21.242Z,23.70
2022-08-03T07:30:48.317Z,23.90
2022-08-03T07:33:15.384Z,24.10
2022-08-03T07:35:42.479Z,24.20
2022-08-03T07:38:09.674Z,24.20
2022-08-03T07:40:36.670Z,23.80
2022-08-03T07:43:03.871Z,23.90
2022-08-03T07:45:34.437Z,24.10
2022-08-03T07:48:01.594Z,24.10
2022-08-03T07:50:28.689Z,24.30
2022-08-03T07:52:58.077Z,24.40
2022-08-03T07:55:26.592Z,24.40
2022-08-03T07:58:12.414Z,24.40
2022-08-03T08:00:39.901Z,24.50
2022-08-03T08:03:06.940Z,24.50
2022-08-03T08:05:34.540Z,24.70
2022-08-03T08:08:03.093Z,24.80
2022-08-03T08:10:31.179Z,24.70
2022-08-03T08:12:58.540Z,24.80
2022-08-03T08:15:25.847Z,24.60
2022-08-03T08:17:56.568Z,24.60
2022-08-03T08:20:33.123Z,24.60
2022-08-03T08:23:10.255Z,24.70
2022-08-03T08:25:53.413Z,24.70
2022-08-03T08:28:30.183Z,24.80
2022-08-03T08:30:59.179Z,24.80
2022-08-03T08:33:37.405Z,24.80
2022-08-03T08:36:15.369Z,25.10
2022-08-03T08:38:44.987Z,25.20
2022-08-03T08:41:14.675Z,25.10
2022-08-03T08:43:43.975Z,25.40
2022-08-03T08:46:23.407Z,25.70
2022-08-03T08:48:54.083Z,25.70
2022-08-03T08:51:54.809Z,25.60
2022-08-03T08:54:18.133Z,25.60
2022-08-03T08:56:45.875Z,26.00
2022-08-03T08:59:13.501Z,26.10
2022-08-03T09:01:40.587Z,26.20
2022-08-03T09:04:09.487Z,26.20
2022-08-03T09:06:36.485Z,26.40
2022-08-03T09:09:03.701Z,26.20
2022-08-03T09:11:53.394Z,26.30
2022-08-03T09:14:36.949Z,26.30
2022-08-03T09:17:05.330Z,26.60
2022-08-03T09:19:34.617Z,26.80
2022-08-03T09:22:17.540Z,27.00
2022-08-03T09:25:27.231Z,26.90
2022-08-03T09:27:54.486Z,27.10
2022-08-03T09:30:34.660Z,27.10
2022-08-03T09:33:08.550Z,27.10
2022-08-03T09:35:54.099Z,27.10
2022-08-03T09:38:26.467Z,27.10
2022-08-03T09:40:59.538Z,27.50
2022-08-03T09:43:28.137Z,27.50
2022-08-03T09:46:04.766Z,27.70
2022-08-03T09:48:37.275Z,27.70
2022-08-03T09:51:12.517Z,27.70
2022-08-03T09:53:58.703Z,27.70
2022-08-03T09:56:47.946Z,27.90
2022-08-03T09:59:29.933Z,27.70
2022-08-03T10:01:59.820Z,27.90
2022-08-03T10:04:27.743Z,28.00
2022-08-03T10:07:09.789Z,28.10
2022-08-03T10:09:37.964Z,28.00
2022-08-03T10:12:13.923Z,28.30
2022-08-03T10:14:45.337Z,28.30
2022-08-03T10:17:13.012Z,27.90
2022-08-03T10:19:41.550Z,28.00
2022-08-03T10:22:21.826Z,28.00
2022-08-03T10:25:12.384Z,28.20
2022-08-03T10:27:42.887Z,28.40
2022-08-03T10:30:11.900Z,28.30
2022-08-03T10:32:49.372Z,28.30
2022-08-03T10:35:21.622Z,28.60
2022-08-03T10:38:01.495Z,28.80
2022-08-03T10:40:48.101Z,28.60
2022-08-03T10:43:34.078Z,28.80
2022-08-03T10:46:03.404Z,28.90
2022-08-03T10:48:31.708Z,29.00
2022-08-03T10:50:59.291Z,29.00
2022-08-03T10:53:38.094Z,28.80
2022-08-03T10:56:35.762Z,28.90
2022-08-03T10:59:12.432Z,29.00
2022-08-03T11:02:00.008Z,28.90
2022-08-03T11:04:30.021Z,29.00
2022-08-03T11:07:16.871Z,29.50
2022-08-03T11:09:58.328Z,29.60
2022-08-03T11:12:33.935Z,29.60
2022-08-03T11:15:05.785Z,29.20
2022-08-03T11:17:55.975Z,29.40
2022-08-03T11:20:58.933Z,29.70
2022-08-03T11:24:03.150Z,29.80
2022-08-03T11:26:33.550Z,29.70
2022-08-03T11:29:31.852Z,29.50
2022-08-03T11:31:59.049Z,29.70
2022-08-03T11:34:26.413Z,29.70
2022-08-03T11:37:29.965Z,29.70
2022-08-03T11:39:58.814Z,29.50
2022-08-03T11:42:27.018Z,29.80
2022-08-03T11:44:59.568Z,29.90
2022-08-03T11:47:32.115Z,29.80
2022-08-03T11:50:02.251Z,29.80
2022-08-03T11:52:37.081Z,29.60
2022-08-03T11:55:11.219Z,29.40
2022-08-03T11:59:18.753Z,29.80
2022-08-03T12:00:33.259Z,30.10
2022-08-03T12:03:05.213Z,30.10
2022-08-03T12:05:42.056Z,30.20
2022-08-03T12:08:40.968Z,30.20
2022-08-03T12:11:10.724Z,30.20
2022-08-03T12:14:43.822Z,30.20
2022-08-03T12:16:38.360Z,30.30
2022-08-03T12:19:09.268Z,30.40
2022-08-03T12:21:57.139Z,30.20
2022-08-03T12:24:24.646Z,30.40
2022-08-03T12:26:58.975Z,30.70
2022-08-03T12:29:27.183Z,31.00
2022-08-03T12:31:55.983Z,31.40
2022-08-03T12:34:23.376Z,30.90
2022-08-03T12:36:56.632Z,30.90
2022-08-03T12:39:27.503Z,30.60
2022-08-03T12:41:56.756Z,30.70
2022-08-03T12:44:33.108Z,30.50
2022-08-03T12:47:02.404Z,30.10
2022-08-03T12:49:40.893Z,29.90
2022-08-03T12:52:08.769Z,29.80
2022-08-03T12:54:36.115Z,29.80
2022-08-03T12:57:15.817Z,29.90
2022-08-03T12:59:52.536Z,30.00
2022-08-03T13:02:26.385Z,30.20
2022-08-03T13:04:55.969Z,30.90
2022-08-03T13:07:23.552Z,30.40
2022-08-03T13:09:55.145Z,30.40
2022-08-03T13:12:28.419Z,30.20
2022-08-03T13:14:59.615Z,30.00
2022-08-03T13:17:28.114Z,30.30
2022-08-03T13:19:56.329Z,30.50
2022-08-03T13:22:28.862Z,30.30
2022-08-03T13:24:57.729Z,30.40
2022-08-03T13:28:03.127Z,30.70
2022-08-03T13:30:13.971Z,31.00
2022-08-03T13:32:50.496Z,31.30
2022-08-03T13:35:17.457Z,31.20
2022-08-03T13:37:44.582Z,31.20
2022-08-03T13:40:15.980Z,31.30
2022-08-03T13:42:44.193Z,31.40
2022-08-03T13:45:11.502Z,31.50
2022-08-03T13:47:38.548Z,31.40
2022-08-03T13:50:05.991Z,31.30
2022-08-03T13:52:35.210Z,31.70
2022-08-03T13:55:06.261Z,31.90
2022-08-03T13:58:03.796Z,31.90
2022-08-03T14:00:26.984Z,31.50
2022-08-03T14:03:17.403Z,31.70
2022-08-03T14:05:44.627Z,32.30
2022-08-03T14:08:12.530Z,32.20
2022-08-03T14:10:44.502Z,32.30
2022-08-03T14:13:17.679Z,32.60
2022-08-03T14:15:50.140Z,32.40
2022-08-03T14:18:28.564Z,32.60
2022-08-03T14:21:06.758Z,32.40
2022-08-03T14:23:38.276Z,32.40
2022-08-03T14:26:09.612Z,32.30
2022-08-03T14:28:36.835Z,32.70
2022-08-03T14:31:04.509Z,33.10
2022-08-03T14:33:35.772Z,32.80
2022-08-03T14:36:02.931Z,33.10
2022-08-03T14:38:29.956Z,33.40
2022-08-03T14:40:57.076Z,33.40
2022-08-03T14:43:24.254Z,33.20
2022-08-03T14:45:53.594Z,32.60
2022-08-03T14:50:27.803Z,32.70
2022-08-03T14:51:09.431Z,32.50
2022-08-03T14:53:36.437Z,32.00
2022-08-03T14:56:09.443Z,32.50
2022-08-03T14:58:37.750Z,32.90
2022-08-03T15:02:03.120Z,33.10
2022-08-03T15:03:51.867Z,33.10
2022-08-03T15:06:18.974Z,32.80
2022-08-03T15:09:00.538Z,32.60
2022-08-03T15:11:33.396Z,32.80
2022-08-03T15:14:00.454Z,33.30
2022-08-03T15:16:29.930Z,33.60
2022-08-03T15:18:57.772Z,34.20
2022-08-03T15:21:47.386Z,34.40
2022-08-03T15:24:12.232Z,34.50
2022-08-03T15:26:41.585Z,34.10
2022-08-03T15:29:08.939Z,34.90
2022-08-03T15:31:55.992Z,34.90
2022-08-03T15:34:22.931Z,34.90
2022-08-03T15:36:50.021Z,34.90
2022-08-03T15:39:17.223Z,34.90
2022-08-03T15:41:45.066Z,36.10
2022-08-03T15:44:12.155Z,36.00
2022-08-03T15:46:39.298Z,36.20
2022-08-03T15:49:06.291Z,36.10
2022-08-03T15:51:33.357Z,35.80
2022-08-03T15:54:00.386Z,36.40
2022-08-03T15:56:27.443Z,36.20
2022-08-03T15:59:10.686Z,36.40
2022-08-03T16:01:40.471Z,36.70
2022-08-03T16:04:07.654Z,36.40
2022-08-03T16:06:35.901Z,37.30
2022-08-03T16:09:23.652Z,36.80
2022-08-03T16:11:53.768Z,37.40
2022-08-03T16:14:34.475Z,38.00
2022-08-03T16:17:05.189Z,37.90
2022-08-03T16:19:32.612Z,38.20
2022-08-03T16:22:00.439Z,38.10
2022-08-03T16:24:28.391Z,37.80
2022-08-03T16:26:56.450Z,38.40
2022-08-03T16:29:24.050Z,38.10
2022-08-03T16:31:52.422Z,38.20
2022-08-03T16:34:20.519Z,38.30
2022-08-03T16:36:47.793Z,38.00
2022-08-03T16:39:14.882Z,38.30
2022-08-03T16:42:00.552Z,37.60
2022-08-03T16:44:30.737Z,37.00
2022-08-03T16:46:59.293Z,37.60
2022-08-03T16:49:53.663Z,37.90
2022-08-03T16:52:13.475Z,37.90
2022-08-03T16:54:40.748Z,37.80
2022-08-03T16:57:31.640Z,37.10
2022-08-03T16:59:55.038Z,37.00
2022-08-03T17:02:28.387Z,37.00
2022-08-03T17:04:58.033Z,36.40
2022-08-03T17:07:26.778Z,36.40
2022-08-03T17:09:57.360Z,36.80
2022-08-03T17:12:26.011Z,36.50
2022-08-03T17:14:54.789Z,36.00
2022-08-03T17:17:37.678Z,36.10
2022-08-03T17:20:20.198Z,36.00
2022-08-03T17:23:33.882Z,35.90
2022-08-03T17:26:02.397Z,35.90
2022-08-03T17:28:51.175Z,35.70
2022-08-03T17:31:31.290Z,35.90
2022-08-03T17:34:04.576Z,36.50
2022-08-03T17:37:01.966Z,37.70
2022-08-03T17:39:35.927Z,38.00
2022-08-03T17:42:30.008Z,37.60
2022-08-03T17:44:57.758Z,37.90
2022-08-03T17:47:29.186Z,38.00
2022-08-03T17:50:24.363Z,38.10
2022-08-03T17:53:07.061Z,38.10
2022-08-03T17:55:55.281Z,37.40
2022-08-03T17:58:53.529Z,37.20
2022-08-03T18:01:59.127Z,37.70
2022-08-03T18:04:38.313Z,37.80
2022-08-03T18:07:12.706Z,37.40
2022-08-03T18:10:03.195Z,36.40
2022-08-03T18:13:10.520Z,35.80
2022-08-03T18:15:52.409Z,35.50
2022-08-03T18:18:36.940Z,35.10
2022-08-03T18:21:09.154Z,35.10
2022-08-03T18:23:39.048Z,34.50
2022-08-03T18:26:12.011Z,34.10
2022-08-03T18:28:40.624Z,33.80
2022-08-03T18:31:12.613Z,33.70
2022-08-03T18:34:18.665Z,33.40
2022-08-03T18:36:30.479Z,33.10
2022-08-03T18:39:01.613Z,32.90
2022-08-03T18:41:32.303Z,32.90
2022-08-03T18:44:07.811Z,32.70
2022-08-03T18:47:07.034Z,32.40
2022-08-03T18:50:09.483Z,32.20
2022-08-03T18:52:53.299Z,32.10
2022-08-03T18:55:35.491Z,31.80
2022-08-03T18:58:17.644Z,31.60
2022-08-03T19:01:03.324Z,31.50
2022-08-03T19:03:41.489Z,31.30
2022-08-03T19:06:22.303Z,31.00
2022-08-03T19:08:56.113Z,31.00
2022-08-03T19:12:13.154Z,30.80
2022-08-03T19:14:43.382Z,30.60
2022-08-03T19:17:13.244Z,30.30
2022-08-03T19:19:44.997Z,30.10
2022-08-03T19:22:16.008Z,30.10
2022-08-03T19:24:46.880Z,30.00
2022-08-03T19:27:15.946Z,29.70
2022-08-03T19:30:00.433Z,29.70
2022-08-03T19:32:31.095Z,29.60
2022-08-03T19:35:01.484Z,29.40
2022-08-03T19:37:37.999Z,29.20
2022-08-03T19:40:10.939Z,29.10
2022-08-03T19:42:45.131Z,29.10
2022-08-03T19:45:21.309Z,28.90
2022-08-03T19:47:53.272Z,28.90
2022-08-03T19:50:21.162Z,28.80
2022-08-03T19:52:50.053Z,28.60
2022-08-03T19:55:18.937Z,28.40
2022-08-03T19:57:49.684Z,28.50
2022-08-03T20:00:20.075Z,28.00
2022-08-03T20:02:54.300Z,28.10
2022-08-03T20:05:21.368Z,28.10
2022-08-03T20:07:50.663Z,28.10
2022-08-03T20:10:20.369Z,28.10
2022-08-03T20:12:49.584Z,28.00
2022-08-03T20:15:18.273Z,28.00
2022-08-03T20:17:59.095Z,27.80
2022-08-03T20:20:33.403Z,27.70
2022-08-03T20:23:19.930Z,27.70
2022-08-03T20:25:59.969Z,27.60
2022-08-03T20:28:50.068Z,27.60
2022-08-03T20:31:20.161Z,27.10
2022-08-03T20:33:49.765Z,27.30
2022-08-03T20:36:18.782Z,27.30
2022-08-03T20:38:48.130Z,26.90
2022-08-03T20:41:18.788Z,27.10
2022-08-03T20:43:49.381Z,26.90
2022-08-03T20:46:29.516Z,27.00
2022-08-03T20:49:01.445Z,27.00
2022-08-03T20:51:50.140Z,27.00
2022-08-03T20:54:29.549Z,27.10
2022-08-03T20:57:04.099Z,27.10
2022-08-03T20:59:50.485Z,26.90
2022-08-03T21:02:29.144Z,26.90
2022-08-03T21:05:03.584Z,26.90
2022-08-03T21:08:05.813Z,27.00
2022-08-03T21:10:32.342Z,27.00
2022-08-03T21:13:28.420Z,26.90
2022-08-03T21:16:12.730Z,26.80
2022-08-03T21:18:49.141Z,26.80
2022-08-03T21:21:22.379Z,26.70
2022-08-03T21:23:55.275Z,26.70
2022-08-03T21:26:25.372Z,26.70
2022-08-03T21:28:56.471Z,26.70
2022-08-03T21:31:26.444Z,26.70
2022-08-03T21:34:05.098Z,26.70
2022-08-03T21:36:37.667Z,26.60
2022-08-03T21:39:09.014Z,26.50
2022-08-03T21:41:39.110Z,26.50
2022-08-03T21:44:07.252Z,26.50
2022-08-03T21:46:40.945Z,26.40
2022-08-03T21:49:51.985Z,26.40
2022-08-03T21:52:05.972Z,26.20
2022-08-03T21:54:43.564Z,26.20
2022-08-03T21:57:25.170Z,26.10
2022-08-03T21:59:55.900Z,26.10
2022-08-03T22:02:32.012Z,26.00
2022-08-03T22:04:59.443Z,26.00
2022-08-03T22:07:29.326Z,26.00
2022-08-03T22:09:59.180Z,25.90
2022-08-03T22:12:29.453Z,25.60
2022-08-03T22:15:01.075Z,25.60
2022-08-03T22:17:55.438Z,25.70
2022-08-03T22:20:20.940Z,25.60
2022-08-03T22:22:55.695Z,25.50
2022-08-03T22:25:30.732Z,25.50
2022-08-03T22:28:09.168Z,25.40
2022-08-03T22:30:37.625Z,25.30
2022-08-03T22:33:11.023Z,25.30
2022-08-03T22:35:50.358Z,25.30
2022-08-03T22:38:18.782Z,25.30
2022-08-03T22:40:50.819Z,25.20
2022-08-03T22:43:22.075Z,25.00
2022-08-03T22:46:10.662Z,25.00
2022-08-03T22:48:40.817Z,24.90
2022-08-03T22:51:09.358Z,25.00
2022-08-03T22:53:36.595Z,24.90
2022-08-03T22:56:04.382Z,24.80
2022-08-03T22:58:31.497Z,24.80
2022-08-03T23:01:07.997Z,24.70
2022-08-03T23:04:00.311Z,24.60
2022-08-03T23:06:35.617Z,24.60
2022-08-03T23:09:14.095Z,24.60
2022-08-03T23:11:45.949Z,24.50
2022-08-03T23:14:19.180Z,24.40
2022-08-03T23:16:47.938Z,24.40
2022-08-03T23:19:25.455Z,24.40
2022-08-03T23:22:02.399Z,24.30
2022-08-03T23:24:33.955Z,24.30
2022-08-03T23:27:08.247Z,24.30
2022-08-03T23:29:42.251Z,24.40
2022-08-03T23:32:12.466Z,24.40
2022-08-03T23:34:58.890Z,24.20
2022-08-03T23:37:26.864Z,24.20
2022-08-03T23:39:56.914Z,24.10
2022-08-03T23:42:24.512Z,24.00
2022-08-03T23:44:56.417Z,24.00
2022-08-03T23:47:46.783Z,23.90
2022-08-03T23:50:12.921Z,23.90
2022-08-03T23:52:58.528Z,23.90
2022-08-03T23:55:47.142Z,23.90
2022-08-03T23:58:41.180Z,23.80
